sensor_id;sensor_type;location;lat;lon;timestamp;temperature;humidity
2565;DHT22;1292;48.020;7.822;2023-01-19T06:46:17;0.00;99.90
2565;DHT22;1292;48.020;7.822;2023-01-19T06:48:43;0.10;99.90
2565;DHT22;1292;48.020;7.822;2023-01-19T06:51:10;0.10;99.90
2565;DHT22;1292;48.020;7.822;2023-01-19T06:53:37;0.10;99.90
2565;DHT22;1292;48.020;7.822;2023-01-19T06:56:05;0.10;99.90
2565;DHT22;1292;48.020;7.822;2023-01-19T06:58:33;0.20;99.90
2565;DHT22;1292;48.020;7.822;2023-01-19T07:01:00;0.30;99.90
2565;DHT22;1292;48.020;7.822;2023-01-19T07:03:29;0.30;99.90
2565;DHT22;1292;48.020;7.822;2023-01-19T07:05:56;0.30;99.90
2565;DHT22;1292;48.020;7.822;2023-01-19T07:08:24;0.40;99.90
2565;DHT22;1292;48.020;7.822;2023-01-19T07:10:51;0.40;99.90
2565;DHT22;1292;48.020;7.822;2023-01-19T07:13:18;0.40;99.90
2565;DHT22;1292;48.020;7.822;2023-01-19T07:15:46;0.50;99.90
2565;DHT22;1292;48.020;7.822;2023-01-19T07:18:12;0.50;99.90
2565;DHT22;1292;48.020;7.822;2023-01-19T07:20:41;0.60;99.90
2565;DHT22;1292;48.020;7.822;2023-01-19T07:23:09;0.50;99.90
2565;DHT22;1292;48.020;7.822;2023-01-19T07:25:36;0.60;99.90
2565;DHT22;1292;48.020;7.822;2023-01-19T07:28:03;0.50;99.90
2565;DHT22;1292;48.020;7.822;2023-01-19T07:30:30;0.60;99.90
2565;DHT22;1292;48.020;7.822;2023-01-19T07:32:57;0.70;99.90
2565;DHT22;1292;48.020;7.822;2023-01-19T07:35:24;0.70;99.90
2565;DHT22;1292;48.020;7.822;2023-01-19T07:37:52;0.70;99.90
2565;DHT22;1292;48.020;7.822;2023-01-19T07:40:19;0.70;99.90
2565;DHT22;1292;48.020;7.822;2023-01-19T07:42:47;0.70;99.90
2565;DHT22;1292;48.020;7.822;2023-01-19T07:45:15;0.80;99.90
2565;DHT22;1292;48.020;7.822;2023-01-19T07:47:42;0.80;99.90
2565;DHT22;1292;48.020;7.822;2023-01-19T07:50:10;0.80;99.90
2565;DHT22;1292;48.020;7.822;2023-01-19T07:52:37;0.90;99.90
2565;DHT22;1292;48.020;7.822;2023-01-19T07:55:06;0.90;99.90
2565;DHT22;1292;48.020;7.822;2023-01-19T07:57:33;0.90;99.90
2565;DHT22;1292;48.020;7.822;2023-01-19T08:00:00;0.90;99.90
2565;DHT22;1292;48.020;7.822;2023-01-19T08:02:28;0.90;99.90
2565;DHT22;1292;48.020;7.822;2023-01-19T08:04:56;1.00;99.90
2565;DHT22;1292;48.020;7.822;2023-01-19T08:07:23;1.10;99.90
2565;DHT22;1292;48.020;7.822;2023-01-19T08:09:50;1.10;99.90
2565;DHT22;1292;48.020;7.822;2023-01-19T08:12:18;1.10;99.90
2565;DHT22;1292;48.020;7.822;2023-01-19T08:14:45;1.20;99.90
2565;DHT22;1292;48.020;7.822;2023-01-19T08:17:12;1.20;99.90
2565;DHT22;1292;48.020;7.822;2023-01-19T08:19:39;1.20;99.90
2565;DHT22;1292;48.020;7.822;2023-01-19T08:22:06;1.20;99.90
2565;DHT22;1292;48.020;7.822;2023-01-19T08:24:32;1.20;99.90
2565;DHT22;1292;48.020;7.822;2023-01-19T08:27:00;1.20;99.90
2565;DHT22;1292;48.020;7.822;2023-01-19T08:29:28;1.30;99.90
2565;DHT22;1292;48.020;7.822;2023-01-19T08:31:56;1.30;99.90
2565;DHT22;1292;48.020;7.822;2023-01-19T08:34:24;1.40;99.90
2565;DHT22;1292;48.020;7.822;2023-01-19T08:36:51;1.40;99.90
2565;DHT22;1292;48.020;7.822;2023-01-19T08:39:18;1.40;99.90
2565;DHT22;1292;48.020;7.822;2023-01-19T08:41:45;1.50;99.90
2565;DHT22;1292;48.020;7.822;2023-01-19T08:44:12;1.50;99.90
2565;DHT22;1292;48.020;7.822;2023-01-19T08:46:40;1.40;99.90
2565;DHT22;1292;48.020;7.822;2023-01-19T08:49:07;1.40;99.90
2565;DHT22;1292;48.020;7.822;2023-01-19T08:51:34;1.40;99.90
2565;DHT22;1292;48.020;7.822;2023-01-19T08:54:01;1.40;99.90
2565;DHT22;1292;48.020;7.822;2023-01-19T08:56:28;1.40;99.90
2565;DHT22;1292;48.020;7.822;2023-01-19T08:58:55;1.40;99.90
2565;DHT22;1292;48.020;7.822;2023-01-19T09:01:21;1.40;99.90
2565;DHT22;1292;48.020;7.822;2023-01-19T09:03:51;1.40;99.90
2565;DHT22;1292;48.020;7.822;2023-01-19T09:06:19;1.50;99.90
2565;DHT22;1292;48.020;7.822;2023-01-19T09:08:46;1.50;99.90
2565;DHT22;1292;48.020;7.822;2023-01-19T09:11:14;1.60;99.90
2565;DHT22;1292;48.020;7.822;2023-01-19T09:13:42;1.60;99.90
2565;DHT22;1292;48.020;7.822;2023-01-19T09:16:09;1.70;99.90
2565;DHT22;1292;48.020;7.822;2023-01-19T09:18:37;1.80;99.90
2565;DHT22;1292;48.020;7.822;2023-01-19T09:21:06;1.80;99.90
2565;DHT22;1292;48.020;7.822;2023-01-19T09:23:33;1.80;99.90
2565;DHT22;1292;48.020;7.822;2023-01-19T09:26:01;1.80;99.90
2565;DHT22;1292;48.020;7.822;2023-01-19T09:28:28;1.90;99.90
2565;DHT22;1292;48.020;7.822;2023-01-19T09:30:56;1.90;99.90
2565;DHT22;1292;48.020;7.822;2023-01-19T09:33:23;2.00;99.90
2565;DHT22;1292;48.020;7.822;2023-01-19T09:35:50;2.00;99.90
2565;DHT22;1292;48.020;7.822;2023-01-19T09:38:18;2.10;99.90
2565;DHT22;1292;48.020;7.822;2023-01-19T09:40:48;2.10;99.90
2565;DHT22;1292;48.020;7.822;2023-01-19T09:43:20;2.10;99.90
2565;DHT22;1292;48.020;7.822;2023-01-19T09:45:55;2.20;99.90
2565;DHT22;1292;48.020;7.822;2023-01-19T09:48:31;2.30;99.90
2565;DHT22;1292;48.020;7.822;2023-01-19T09:51:02;2.30;99.90
2565;DHT22;1292;48.020;7.822;2023-01-19T09:53:44;2.40;99.90
2565;DHT22;1292;48.020;7.822;2023-01-19T09:56:16;2.40;99.90
2565;DHT22;1292;48.020;7.822;2023-01-19T09:58:44;2.60;99.90
2565;DHT22;1292;48.020;7.822;2023-01-19T10:01:35;2.60;99.90
2565;DHT22;1292;48.020;7.822;2023-01-19T10:04:25;2.60;99.90
2565;DHT22;1292;48.020;7.822;2023-01-19T10:06:57;2.60;99.90
2565;DHT22;1292;48.020;7.822;2023-01-19T10:09:31;2.60;99.90
2565;DHT22;1292;48.020;7.822;2023-01-19T10:12:03;2.60;99.90
2565;DHT22;1292;48.020;7.822;2023-01-19T10:14:33;2.60;99.90
2565;DHT22;1292;48.020;7.822;2023-01-19T10:17:13;2.70;99.90
2565;DHT22;1292;48.020;7.822;2023-01-19T10:19:44;2.60;99.90
2565;DHT22;1292;48.020;7.822;2023-01-19T10:22:19;2.60;99.90
2565;DHT22;1292;48.020;7.822;2023-01-19T10:24:52;2.50;99.90
2565;DHT22;1292;48.020;7.822;2023-01-19T10:27:23;2.50;99.90
2565;DHT22;1292;48.020;7.822;2023-01-19T10:29:52;2.60;99.90
2565;DHT22;1292;48.020;7.822;2023-01-19T10:32:20;2.60;99.90
2565;DHT22;1292;48.020;7.822;2023-01-19T10:34:48;2.50;99.90
2565;DHT22;1292;48.020;7.822;2023-01-19T10:37:24;2.50;99.90
2565;DHT22;1292;48.020;7.822;2023-01-19T10:39:56;2.50;99.90
2565;DHT22;1292;48.020;7.822;2023-01-19T10:42:28;2.50;99.90
2565;DHT22;1292;48.020;7.822;2023-01-19T10:44:55;2.50;99.90
2565;DHT22;1292;48.020;7.822;2023-01-19T10:47:29;2.50;99.90
2565;DHT22;1292;48.020;7.822;2023-01-19T10:49:56;2.60;99.90
2565;DHT22;1292;48.020;7.822;2023-01-19T10:52:27;2.50;99.90
2565;DHT22;1292;48.020;7.822;2023-01-19T10:54:56;2.60;99.90
2565;DHT22;1292;48.020;7.822;2023-01-19T10:57:27;2.60;99.90
2565;DHT22;1292;48.020;7.822;2023-01-19T10:59:55;2.60;99.90
2565;DHT22;1292;48.020;7.822;2023-01-19T11:02:24;2.60;99.90
2565;DHT22;1292;48.020;7.822;2023-01-19T11:04:53;2.50;99.90
2565;DHT22;1292;48.020;7.822;2023-01-19T11:07:22;2.40;99.90
2565;DHT22;1292;48.020;7.822;2023-01-19T11:10:20;2.50;99.90
2565;DHT22;1292;48.020;7.822;2023-01-19T11:12:55;2.40;99.90
2565;DHT22;1292;48.020;7.822;2023-01-19T11:15:26;2.40;99.90
2565;DHT22;1292;48.020;7.822;2023-01-19T11:17:55;2.40;99.90
2565;DHT22;1292;48.020;7.822;2023-01-19T11:20:23;2.50;99.90
2565;DHT22;1292;48.020;7.822;2023-01-19T11:23:03;2.50;99.90
2565;DHT22;1292;48.020;7.822;2023-01-19T11:25:33;2.60;99.90
2565;DHT22;1292;48.020;7.822;2023-01-19T11:28:01;2.60;99.90
2565;DHT22;1292;48.020;7.822;2023-01-19T11:30:29;2.70;99.90
2565;DHT22;1292;48.020;7.822;2023-01-19T11:32:56;2.80;99.90
2565;DHT22;1292;48.020;7.822;2023-01-19T11:35:36;2.90;99.90
2565;DHT22;1292;48.020;7.822;2023-01-19T11:38:17;3.00;99.90
2565;DHT22;1292;48.020;7.822;2023-01-19T11:40:51;3.00;99.90
2565;DHT22;1292;48.020;7.822;2023-01-19T11:43:20;3.20;99.90
2565;DHT22;1292;48.020;7.822;2023-01-19T11:45:47;3.30;99.90
2565;DHT22;1292;48.020;7.822;2023-01-19T11:48:21;3.40;99.90
2565;DHT22;1292;48.020;7.822;2023-01-19T11:50:49;3.40;99.90
2565;DHT22;1292;48.020;7.822;2023-01-19T11:53:19;3.50;99.90
2565;DHT22;1292;48.020;7.822;2023-01-19T11:55:53;3.60;99.90
2565;DHT22;1292;48.020;7.822;2023-01-19T11:58:21;3.80;99.90
2565;DHT22;1292;48.020;7.822;2023-01-19T12:00:51;3.90;99.90
2565;DHT22;1292;48.020;7.822;2023-01-19T12:03:22;4.00;99.90
2565;DHT22;1292;48.020;7.822;2023-01-19T12:05:54;4.10;99.90
2565;DHT22;1292;48.020;7.822;2023-01-19T12:08:24;4.10;99.90
2565;DHT22;1292;48.020;7.822;2023-01-19T12:10:54;4.10;99.90
2565;DHT22;1292;48.020;7.822;2023-01-19T12:13:24;4.00;99.90
2565;DHT22;1292;48.020;7.822;2023-01-19T12:15:54;3.90;99.90
2565;DHT22;1292;48.020;7.822;2023-01-19T12:18:26;3.90;99.90
2565;DHT22;1292;48.020;7.822;2023-01-19T12:20:54;3.80;99.90
2565;DHT22;1292;48.020;7.822;2023-01-19T12:23:50;3.60;99.90
2565;DHT22;1292;48.020;7.822;2023-01-19T12:26:28;3.40;99.90
2565;DHT22;1292;48.020;7.822;2023-01-19T12:28:58;3.40;99.90
2565;DHT22;1292;48.020;7.822;2023-01-19T12:31:26;3.50;99.90
2565;DHT22;1292;48.020;7.822;2023-01-19T12:33:52;3.70;99.90
2565;DHT22;1292;48.020;7.822;2023-01-19T12:36:36;3.70;99.90
2565;DHT22;1292;48.020;7.822;2023-01-19T12:39:09;3.60;99.90
2565;DHT22;1292;48.020;7.822;2023-01-19T12:41:40;3.70;99.90
2565;DHT22;1292;48.020;7.822;2023-01-19T12:44:19;3.80;99.90
2565;DHT22;1292;48.020;7.822;2023-01-19T12:46:49;3.80;99.90
2565;DHT22;1292;48.020;7.822;2023-01-19T12:49:23;3.70;99.90
2565;DHT22;1292;48.020;7.822;2023-01-19T12:51:53;3.80;99.90
2565;DHT22;1292;48.020;7.822;2023-01-19T12:54:27;3.70;99.90
2565;DHT22;1292;48.020;7.822;2023-01-19T12:57:00;3.90;99.90
2565;DHT22;1292;48.020;7.822;2023-01-19T12:59:35;3.90;99.90
2565;DHT22;1292;48.020;7.822;2023-01-19T13:05:24;3.80;99.90
2565;DHT22;1292;48.020;7.822;2023-01-19T13:08:13;3.90;99.90
2565;DHT22;1292;48.020;7.822;2023-01-19T13:11:16;3.90;99.90
2565;DHT22;1292;48.020;7.822;2023-01-19T13:17:27;3.80;99.90
2565;DHT22;1292;48.020;7.822;2023-01-19T13:20:18;3.80;99.90
2565;DHT22;1292;48.020;7.822;2023-01-19T13:25:53;3.80;99.90
2565;DHT22;1292;48.020;7.822;2023-01-19T13:28:30;3.80;99.90
2565;DHT22;1292;48.020;7.822;2023-01-19T13:30:59;3.80;99.90
2565;DHT22;1292;48.020;7.822;2023-01-19T13:33:33;3.80;99.90
2565;DHT22;1292;48.020;7.822;2023-01-19T13:36:00;3.70;99.90
2565;DHT22;1292;48.020;7.822;2023-01-19T13:38:28;3.60;99.90
2565;DHT22;1292;48.020;7.822;2023-01-19T13:40:58;3.60;99.90
2565;DHT22;1292;48.020;7.822;2023-01-19T13:43:30;3.70;99.90
2565;DHT22;1292;48.020;7.822;2023-01-19T13:45:59;3.70;99.90
2565;DHT22;1292;48.020;7.822;2023-01-19T13:48:29;3.70;99.90
2565;DHT22;1292;48.020;7.822;2023-01-19T13:50:59;3.80;99.90
2565;DHT22;1292;48.020;7.822;2023-01-19T13:53:26;3.90;99.90
2565;DHT22;1292;48.020;7.822;2023-01-19T13:56:16;3.90;99.90
2565;DHT22;1292;48.020;7.822;2023-01-19T13:58:56;3.90;99.90
2565;DHT22;1292;48.020;7.822;2023-01-19T14:01:26;3.90;99.90
2565;DHT22;1292;48.020;7.822;2023-01-19T14:03:54;3.80;99.90
2565;DHT22;1292;48.020;7.822;2023-01-19T14:06:22;3.80;99.90
2565;DHT22;1292;48.020;7.822;2023-01-19T14:09:09;3.70;99.90
2565;DHT22;1292;48.020;7.822;2023-01-19T14:11:39;3.60;99.90
2565;DHT22;1292;48.020;7.822;2023-01-19T14:14:24;3.60;99.90
2565;DHT22;1292;48.020;7.822;2023-01-19T14:16:52;3.70;99.90
2565;DHT22;1292;48.020;7.822;2023-01-19T14:19:19;3.50;99.90
2565;DHT22;1292;48.020;7.822;2023-01-19T14:21:57;3.60;99.90
2565;DHT22;1292;48.020;7.822;2023-01-19T14:24:24;3.40;99.90
2565;DHT22;1292;48.020;7.822;2023-01-19T14:27:06;3.40;99.90
2565;DHT22;1292;48.020;7.822;2023-01-19T14:29:34;3.40;99.90
2565;DHT22;1292;48.020;7.822;2023-01-19T14:32:22;3.40;99.90
2565;DHT22;1292;48.020;7.822;2023-01-19T14:34:50;3.40;99.90
2565;DHT22;1292;48.020;7.822;2023-01-19T14:37:24;3.40;99.90
2565;DHT22;1292;48.020;7.822;2023-01-19T14:39:54;3.50;99.90
2565;DHT22;1292;48.020;7.822;2023-01-19T14:42:25;3.40;99.90
2565;DHT22;1292;48.020;7.822;2023-01-19T14:44:54;3.40;99.90
2565;DHT22;1292;48.020;7.822;2023-01-19T14:47:36;3.40;99.90
2565;DHT22;1292;48.020;7.822;2023-01-19T14:50:22;3.40;99.90
2565;DHT22;1292;48.020;7.822;2023-01-19T14:52:52;3.40;99.90
2565;DHT22;1292;48.020;7.822;2023-01-19T14:55:31;3.40;99.90
2565;DHT22;1292;48.020;7.822;2023-01-19T14:57:59;3.30;99.90
2565;DHT22;1292;48.020;7.822;2023-01-19T15:00:26;3.20;99.90
2565;DHT22;1292;48.020;7.822;2023-01-19T15:02:54;3.10;99.90
2565;DHT22;1292;48.020;7.822;2023-01-19T15:05:22;3.10;99.90
2565;DHT22;1292;48.020;7.822;2023-01-19T15:07:48;3.30;99.90
2565;DHT22;1292;48.020;7.822;2023-01-19T15:10:19;3.30;99.90
2565;DHT22;1292;48.020;7.822;2023-01-19T15:12:47;3.20;99.90
2565;DHT22;1292;48.020;7.822;2023-01-19T15:15:16;3.20;99.90
2565;DHT22;1292;48.020;7.822;2023-01-19T15:17:44;3.30;99.90
2565;DHT22;1292;48.020;7.822;2023-01-19T15:20:15;3.20;99.90
2565;DHT22;1292;48.020;7.822;2023-01-19T15:22:42;3.20;99.90
2565;DHT22;1292;48.020;7.822;2023-01-19T15:25:12;3.20;99.90
2565;DHT22;1292;48.020;7.822;2023-01-19T15:27:39;3.30;99.90
2565;DHT22;1292;48.020;7.822;2023-01-19T15:30:12;3.30;99.90
2565;DHT22;1292;48.020;7.822;2023-01-19T15:32:39;3.20;99.90
2565;DHT22;1292;48.020;7.822;2023-01-19T15:35:13;3.20;99.90
2565;DHT22;1292;48.020;7.822;2023-01-19T15:37:40;3.20;99.90
2565;DHT22;1292;48.020;7.822;2023-01-19T15:40:08;3.20;99.90
2565;DHT22;1292;48.020;7.822;2023-01-19T15:42:35;3.20;99.90
2565;DHT22;1292;48.020;7.822;2023-01-19T15:45:05;3.20;99.90
2565;DHT22;1292;48.020;7.822;2023-01-19T15:47:42;3.10;99.90
2565;DHT22;1292;48.020;7.822;2023-01-19T15:50:10;3.10;99.90
2565;DHT22;1292;48.020;7.822;2023-01-19T15:52:38;3.20;99.90
2565;DHT22;1292;48.020;7.822;2023-01-19T15:55:07;3.10;99.90
2565;DHT22;1292;48.020;7.822;2023-01-19T15:57:34;3.10;99.90
2565;DHT22;1292;48.020;7.822;2023-01-19T16:00:02;3.10;99.90
2565;DHT22;1292;48.020;7.822;2023-01-19T16:02:28;3.10;99.90
2565;DHT22;1292;48.020;7.822;2023-01-19T16:04:55;3.10;99.90
2565;DHT22;1292;48.020;7.822;2023-01-19T16:07:22;3.20;99.90
2565;DHT22;1292;48.020;7.822;2023-01-19T16:09:50;3.10;99.90
2565;DHT22;1292;48.020;7.822;2023-01-19T16:12:17;3.10;99.90
2565;DHT22;1292;48.020;7.822;2023-01-19T16:14:44;3.20;99.90
2565;DHT22;1292;48.020;7.822;2023-01-19T16:17:10;3.20;99.90
2565;DHT22;1292;48.020;7.822;2023-01-19T16:19:37;3.20;99.90
2565;DHT22;1292;48.020;7.822;2023-01-19T16:22:04;3.20;99.90
2565;DHT22;1292;48.020;7.822;2023-01-19T16:24:31;3.20;99.90
2565;DHT22;1292;48.020;7.822;2023-01-19T16:26:59;3.20;99.90
2565;DHT22;1292;48.020;7.822;2023-01-19T16:29:28;3.40;99.90
2565;DHT22;1292;48.020;7.822;2023-01-19T16:31:55;3.20;99.90
2565;DHT22;1292;48.020;7.822;2023-01-19T16:34:22;3.20;99.90
2565;DHT22;1292;48.020;7.822;2023-01-19T16:36:50;3.20;99.90
2565;DHT22;1292;48.020;7.822;2023-01-19T16:39:16;3.30;99.90
2565;DHT22;1292;48.020;7.822;2023-01-19T16:41:44;3.20;99.90
2565;DHT22;1292;48.020;7.822;2023-01-19T16:44:13;3.20;99.90
2565;DHT22;1292;48.020;7.822;2023-01-19T16:46:43;3.20;99.90
2565;DHT22;1292;48.020;7.822;2023-01-19T16:49:12;3.20;99.90
2565;DHT22;1292;48.020;7.822;2023-01-19T16:51:39;3.30;99.90
2565;DHT22;1292;48.020;7.822;2023-01-19T16:54:07;3.30;99.90
2565;DHT22;1292;48.020;7.822;2023-01-19T16:56:37;3.30;99.90
2565;DHT22;1292;48.020;7.822;2023-01-19T16:59:04;3.30;99.90
2565;DHT22;1292;48.020;7.822;2023-01-19T17:01:32;3.30;99.90
2565;DHT22;1292;48.020;7.822;2023-01-19T17:03:59;3.30;99.90
2565;DHT22;1292;48.020;7.822;2023-01-19T17:06:26;3.20;99.90
2565;DHT22;1292;48.020;7.822;2023-01-19T17:08:54;3.20;99.90
2565;DHT22;1292;48.020;7.822;2023-01-19T17:11:23;3.20;99.90
2565;DHT22;1292;48.020;7.822;2023-01-19T17:13:52;3.20;99.90
2565;DHT22;1292;48.020;7.822;2023-01-19T17:16:20;3.20;99.90
2565;DHT22;1292;48.020;7.822;2023-01-19T17:18:48;3.20;99.90
2565;DHT22;1292;48.020;7.822;2023-01-19T17:21:15;3.10;99.90
2565;DHT22;1292;48.020;7.822;2023-01-19T17:23:44;3.10;99.90
2565;DHT22;1292;48.020;7.822;2023-01-19T17:26:11;3.10;99.90
2565;DHT22;1292;48.020;7.822;2023-01-19T17:28:39;3.10;99.90
2565;DHT22;1292;48.020;7.822;2023-01-19T17:31:06;3.10;99.90
2565;DHT22;1292;48.020;7.822;2023-01-19T17:33:35;3.20;99.90
2565;DHT22;1292;48.020;7.822;2023-01-19T17:36:05;3.10;99.90
2565;DHT22;1292;48.020;7.822;2023-01-19T17:38:32;3.10;99.90
2565;DHT22;1292;48.020;7.822;2023-01-19T17:40:59;3.00;99.90
2565;DHT22;1292;48.020;7.822;2023-01-19T17:43:25;3.00;99.90
2565;DHT22;1292;48.020;7.822;2023-01-19T17:45:53;3.10;99.90
2565;DHT22;1292;48.020;7.822;2023-01-19T17:51:00;2.90;99.90
2565;DHT22;1292;48.020;7.822;2023-01-19T17:53:29;2.80;99.90
2565;DHT22;1292;48.020;7.822;2023-01-19T17:56:01;2.80;99.90
2565;DHT22;1292;48.020;7.822;2023-01-19T17:58:28;2.80;99.90
2565;DHT22;1292;48.020;7.822;2023-01-19T18:00:55;2.90;99.90
2565;DHT22;1292;48.020;7.822;2023-01-19T18:03:22;2.80;99.90
2565;DHT22;1292;48.020;7.822;2023-01-19T18:05:52;2.60;99.90
2565;DHT22;1292;48.020;7.822;2023-01-19T18:08:19;2.40;99.90
2565;DHT22;1292;48.020;7.822;2023-01-19T18:10:53;2.30;99.90
2565;DHT22;1292;48.020;7.822;2023-01-19T18:13:20;2.40;99.90
2565;DHT22;1292;48.020;7.822;2023-01-19T18:15:47;2.40;99.90
2565;DHT22;1292;48.020;7.822;2023-01-19T18:18:14;2.50;99.90
2565;DHT22;1292;48.020;7.822;2023-01-19T18:20:41;2.50;99.90
2565;DHT22;1292;48.020;7.822;2023-01-19T18:23:09;2.40;99.90
2565;DHT22;1292;48.020;7.822;2023-01-19T18:25:36;2.50;99.90
2565;DHT22;1292;48.020;7.822;2023-01-19T18:28:05;2.50;99.90
2565;DHT22;1292;48.020;7.822;2023-01-19T18:30:33;2.40;99.90
2565;DHT22;1292;48.020;7.822;2023-01-19T18:33:00;2.40;99.90
2565;DHT22;1292;48.020;7.822;2023-01-19T18:35:27;2.40;99.90
2565;DHT22;1292;48.020;7.822;2023-01-19T18:37:54;2.30;99.90
2565;DHT22;1292;48.020;7.822;2023-01-19T18:40:21;2.20;99.90
2565;DHT22;1292;48.020;7.822;2023-01-19T18:42:48;2.10;99.90
2565;DHT22;1292;48.020;7.822;2023-01-19T18:45:16;2.30;99.90
2565;DHT22;1292;48.020;7.822;2023-01-19T18:47:43;2.30;99.90
2565;DHT22;1292;48.020;7.822;2023-01-19T18:50:10;2.40;99.90
2565;DHT22;1292;48.020;7.822;2023-01-19T18:52:38;2.40;99.90
2565;DHT22;1292;48.020;7.822;2023-01-19T18:55:05;2.40;99.90
2565;DHT22;1292;48.020;7.822;2023-01-19T18:57:33;2.30;99.90
2565;DHT22;1292;48.020;7.822;2023-01-19T19:00:00;2.30;99.90
2565;DHT22;1292;48.020;7.822;2023-01-19T19:02:28;2.40;99.90
2565;DHT22;1292;48.020;7.822;2023-01-19T19:04:55;2.40;99.90
2565;DHT22;1292;48.020;7.822;2023-01-19T19:07:22;2.40;99.90
2565;DHT22;1292;48.020;7.822;2023-01-19T19:09:49;2.40;99.90
2565;DHT22;1292;48.020;7.822;2023-01-19T19:12:15;2.40;99.90
2565;DHT22;1292;48.020;7.822;2023-01-19T19:14:42;2.30;99.90
2565;DHT22;1292;48.020;7.822;2023-01-19T19:17:09;2.30;99.90
2565;DHT22;1292;48.020;7.822;2023-01-19T19:19:37;2.30;99.90
2565;DHT22;1292;48.020;7.822;2023-01-19T19:22:04;2.40;99.90
2565;DHT22;1292;48.020;7.822;2023-01-19T19:24:31;2.40;99.90
2565;DHT22;1292;48.020;7.822;2023-01-19T19:26:58;2.40;99.90
2565;DHT22;1292;48.020;7.822;2023-01-19T19:29:24;2.40;99.90
2565;DHT22;1292;48.020;7.822;2023-01-19T19:31:52;2.50;99.90
2565;DHT22;1292;48.020;7.822;2023-01-19T19:34:21;2.50;99.90
2565;DHT22;1292;48.020;7.822;2023-01-19T19:36:50;2.50;99.90
2565;DHT22;1292;48.020;7.822;2023-01-19T19:39:17;2.50;99.90
2565;DHT22;1292;48.020;7.822;2023-01-19T19:41:43;2.40;99.90
2565;DHT22;1292;48.020;7.822;2023-01-19T19:44:10;2.40;99.90
2565;DHT22;1292;48.020;7.822;2023-01-19T19:46:38;2.30;99.90
2565;DHT22;1292;48.020;7.822;2023-01-19T19:49:05;2.40;99.90
2565;DHT22;1292;48.020;7.822;2023-01-19T19:51:32;2.40;99.90
2565;DHT22;1292;48.020;7.822;2023-01-19T19:54:00;2.40;99.90
2565;DHT22;1292;48.020;7.822;2023-01-19T19:56:29;2.40;99.90
2565;DHT22;1292;48.020;7.822;2023-01-19T19:58:57;2.30;99.90
2565;DHT22;1292;48.020;7.822;2023-01-19T20:01:26;2.40;99.90
2565;DHT22;1292;48.020;7.822;2023-01-19T20:03:53;2.50;99.90
2565;DHT22;1292;48.020;7.822;2023-01-19T20:06:22;2.40;99.90
2565;DHT22;1292;48.020;7.822;2023-01-19T20:08:50;2.40;99.90
2565;DHT22;1292;48.020;7.822;2023-01-19T20:11:21;2.30;99.90
2565;DHT22;1292;48.020;7.822;2023-01-19T20:13:48;2.40;99.90
2565;DHT22;1292;48.020;7.822;2023-01-19T20:16:17;2.20;99.90
2565;DHT22;1292;48.020;7.822;2023-01-19T20:18:46;2.10;99.90
2565;DHT22;1292;48.020;7.822;2023-01-19T20:21:16;2.00;99.90
2565;DHT22;1292;48.020;7.822;2023-01-19T20:23:44;2.00;99.90
2565;DHT22;1292;48.020;7.822;2023-01-19T20:26:13;2.20;99.90
2565;DHT22;1292;48.020;7.822;2023-01-19T20:28:43;2.30;99.90
2565;DHT22;1292;48.020;7.822;2023-01-19T20:31:13;2.30;99.90
2565;DHT22;1292;48.020;7.822;2023-01-19T20:33:40;2.30;99.90
2565;DHT22;1292;48.020;7.822;2023-01-19T20:36:08;2.20;99.90
2565;DHT22;1292;48.020;7.822;2023-01-19T20:38:36;2.20;99.90
2565;DHT22;1292;48.020;7.822;2023-01-19T20:41:03;2.10;99.90
2565;DHT22;1292;48.020;7.822;2023-01-19T20:43:30;2.00;99.90
2565;DHT22;1292;48.020;7.822;2023-01-19T20:45:58;2.00;99.90
2565;DHT22;1292;48.020;7.822;2023-01-19T20:48:25;2.00;99.90
2565;DHT22;1292;48.020;7.822;2023-01-19T20:50:56;2.10;99.90
2565;DHT22;1292;48.020;7.822;2023-01-19T20:53:23;2.20;99.90
2565;DHT22;1292;48.020;7.822;2023-01-19T20:55:50;2.10;99.90
2565;DHT22;1292;48.020;7.822;2023-01-19T20:58:17;2.00;99.90
2565;DHT22;1292;48.020;7.822;2023-01-19T21:00:44;2.10;99.90
2565;DHT22;1292;48.020;7.822;2023-01-19T21:03:12;2.10;99.90
2565;DHT22;1292;48.020;7.822;2023-01-19T21:05:39;2.00;99.90
2565;DHT22;1292;48.020;7.822;2023-01-19T21:08:06;2.00;99.90
2565;DHT22;1292;48.020;7.822;2023-01-19T21:10:33;1.90;99.90
2565;DHT22;1292;48.020;7.822;2023-01-19T21:13:00;1.90;99.90
2565;DHT22;1292;48.020;7.822;2023-01-19T21:15:27;1.90;99.90
2565;DHT22;1292;48.020;7.822;2023-01-19T21:17:53;1.90;99.90
2565;DHT22;1292;48.020;7.822;2023-01-19T21:20:23;1.90;99.90
2565;DHT22;1292;48.020;7.822;2023-01-19T21:22:50;1.90;99.90
2565;DHT22;1292;48.020;7.822;2023-01-19T21:25:17;2.00;99.90
2565;DHT22;1292;48.020;7.822;2023-01-19T21:27:44;1.90;99.90
2565;DHT22;1292;48.020;7.822;2023-01-19T21:30:11;1.90;99.90
2565;DHT22;1292;48.020;7.822;2023-01-19T21:32:38;2.00;99.90
2565;DHT22;1292;48.020;7.822;2023-01-19T21:35:05;1.90;99.90
2565;DHT22;1292;48.020;7.822;2023-01-19T21:37:34;2.00;99.90
2565;DHT22;1292;48.020;7.822;2023-01-19T21:40:01;1.90;99.90
2565;DHT22;1292;48.020;7.822;2023-01-19T21:42:28;2.00;99.90
2565;DHT22;1292;48.020;7.822;2023-01-19T21:44:55;2.00;99.90
2565;DHT22;1292;48.020;7.822;2023-01-19T21:47:22;2.00;99.90
2565;DHT22;1292;48.020;7.822;2023-01-19T21:49:49;1.90;99.90
2565;DHT22;1292;48.020;7.822;2023-01-19T21:52:16;2.00;99.90
2565;DHT22;1292;48.020;7.822;2023-01-19T21:54:44;2.00;99.90
2565;DHT22;1292;48.020;7.822;2023-01-19T21:57:11;2.10;99.90
2565;DHT22;1292;48.020;7.822;2023-01-19T21:59:39;2.10;99.90
